Van, Texas
Current Conditions -  °F | °C
As of 2:15 PM on Sunday 23 Nov 2014 (Local Time) from KJDD Reporting Station
Clear Clear  
Wind Chill: 73°   Ceiling: Unl
Heat Index: 73°   Visibility: 10mi
Dew Point: 52°   Wind: 13mph
Humidity: 47%   Direction: 210°SSW
Pressure: 29.4"   Gusts: 17mph
Location:  32.52°N, 95.64°W
Report Text: KJDD 232015Z AUTO 21011G15KT 10SM CLR 23/11 A2940 RMK AO2
Loading
Personal Weather Stations






























Interactive Weather Map New forecast layout! Learn more

10-Day Weather Forecast

Advertisements
Track Severe Weather on mobile